South Franklin, Vermont
Current Conditions -  °F | °C
As of 12:15 PM on Thursday 30 Oct 2014 (Local Time) from KFSO Reporting Station
Overcast Overcast  
Wind Chill:   Ceiling: 2700
Heat Index:   Visibility: 10mi
Dew Point:   Wind: 3mph
Humidity: 66%   Direction: 270°W
Pressure: 29.97"   Gusts: NA
Location:  44.8764°N, 72.758°W
Report Text: KFSO 301615Z AUTO 27003KT 10SM OVC027 07/01 A2997 RMK AO2 T00670007
Loading
Personal Weather Stations






























Interactive Weather Map
Tropical Storm Tracking
New forecast layout! Learn more

10-Day Weather Forecast

Advertisements
Track Severe Weather on mobile